^^
Saratoga-Weather Station Historical Data
Daily Summary for April 9, 2021 Units:  Both    English   Metric
Daily Weekly Monthly Yearly Custom
  High: Low: Average:
Temperature: 30.9 °F /  -0.6 °C 27.7 °F /  -2.4 °C 29.3 °F /  -1.5 °C
Dew Point: 29.5 °F /  -1.4 °C 25.9 °F /  -3.4 °C 27.9 °F /  -2.3 °C
Humidity: 95% 93% 94%
Wind Speed: 4mph /  6.4km/h - 1.1mph /  1.8km/h
Wind Gust: 7mph /  11.3km/h - -
Wind- - South
Pressure: 29.7 in /  1004.7 hPa 29.5 in /  999.3 hPa -
Precipitation: 0 in /  0.0 mm    
Historical Graphs
 
 
Tabular Data for April 9, 2021
Time Temperature Dew Point Pressure Wind Wind Speed Wind Gust Humidity Rainfall Rate (Hourly) solar
00:03 30.2 °F /  -1 °C 28.8 °F /  -1.8 °C 29.5in /  999.3hPa WNW 0.9mph /  1.4km/h 3mph /  4.8km/h 94% 0in /  0.0mm 0 W/m2
00:08 30.2 °F /  -1 °C 28.8 °F /  -1.8 °C 29.5in /  999.3hPa West 2.9mph /  4.7km/h 4mph /  6.4km/h 94% 0in /  0.0mm 0 W/m2
00:13 30 °F /  -1.1 °C 28.6 °F /  -1.9 °C 29.5in /  999.3hPa WNW 2mph /  3.2km/h 4mph /  6.4km/h 94% 0in /  0.0mm 0 W/m2
00:18 30 °F /  -1.1 °C 28.6 °F /  -1.9 °C 29.5in /  999.3hPa West 2mph /  3.2km/h 3mph /  4.8km/h 94% 0in /  0.0mm 0 W/m2
00:23 30 °F /  -1.1 °C 28.6 °F /  -1.9 °C 29.5in /  999.3hPa West 0.9mph /  1.4km/h 1mph /  1.6km/h 94% 0in /  0.0mm 0 W/m2
00:28 30 °F /  -1.1 °C 28.6 °F /  -1.9 °C 29.5in /  999.3hPa NW 0.9mph /  1.4km/h 2mph /  3.2km/h 94% 0in /  0.0mm 0 W/m2
00:33 30.2 °F /  -1 °C 28.8 °F /  -1.8 °C 29.5in /  999.3hPa WNW 0.9mph /  1.4km/h 3mph /  4.8km/h 94% 0in /  0.0mm 0 W/m2
00:38 30.2 °F /  -1 °C 28.8 °F /  -1.8 °C 29.5in /  999.3hPa WSW 0.9mph /  1.4km/h 4mph /  6.4km/h 94% 0in /  0.0mm 0 W/m2
00:43 30.2 °F /  -1 °C 28.8 °F /  -1.8 °C 29.5in /  999.3hPa Calm   1mph /  1.6km/h 94% 0in /  0.0mm 0 W/m2
00:48 30.2 °F /  -1 °C 28.8 °F /  -1.8 °C 29.5in /  999.3hPa WNW 2.9mph /  4.7km/h 4mph /  6.4km/h 94% 0in /  0.0mm 0 W/m2
00:53 30.2 °F /  -1 °C 28.8 °F /  -1.8 °C 29.5in /  999.3hPa Calm   1mph /  1.6km/h 94% 0in /  0.0mm 0 W/m2
00:58 30.2 °F /  -1 °C 28.8 °F /  -1.8 °C 29.5in /  999.3hPa WNW 2mph /  3.2km/h 3mph /  4.8km/h 94% 0in /  0.0mm 0 W/m2
01:03 30.2 °F /  -1 °C 28.8 °F /  -1.8 °C 29.5in /  999.3hPa Calm   2mph /  3.2km/h 94% 0in /  0.0mm 0 W/m2
01:08 30.4 °F /  -0.9 °C 28.9 °F /  -1.7 °C 29.5in /  999.3hPa Calm   3mph /  4.8km/h 94% 0in /  0.0mm 0 W/m2
01:13 30.4 °F /  -0.9 °C 28.9 °F /  -1.7 °C 29.5in /  999.3hPa Calm     94% 0in /  0.0mm 0 W/m2
01:18 30.4 °F /  -0.9 °C 28.9 °F /  -1.7 °C 29.5in /  999.3hPa WNW 2mph /  3.2km/h 2mph /  3.2km/h 94% 0in /  0.0mm 0 W/m2
01:23 30.2 °F /  -1 °C 28.8 °F /  -1.8 °C 29.5in /  999.3hPa Calm   3mph /  4.8km/h 94% 0in /  0.0mm 0 W/m2
01:28 30.2 °F /  -1 °C 28.8 °F /  -1.8 °C 29.5in /  999.3hPa Calm   1mph /  1.6km/h 94% 0in /  0.0mm 0 W/m2
01:33 30.2 °F /  -1 °C 28.8 °F /  -1.8 °C 29.5in /  999.7hPa Calm   1mph /  1.6km/h 94% 0in /  0.0mm 0 W/m2
01:38 30.4 °F /  -0.9 °C 28.9 °F /  -1.7 °C 29.5in /  999.3hPa Calm   2mph /  3.2km/h 94% 0in /  0.0mm 0 W/m2
01:43 30.2 °F /  -1 °C 28.8 °F /  -1.8 °C 29.5in /  999.3hPa Calm     94% 0in /  0.0mm 0 W/m2
01:48 30.4 °F /  -0.9 °C 28.9 °F /  -1.7 °C 29.5in /  999.3hPa Calm   1mph /  1.6km/h 94% 0in /  0.0mm 0 W/m2
01:54 30.2 °F /  -1 °C 28.8 °F /  -1.8 °C 29.5in /  999.3hPa West 2.9mph /  4.7km/h 3mph /  4.8km/h 94% 0in /  0.0mm 0 W/m2
01:59 30.2 °F /  -1 °C 28.8 °F /  -1.8 °C 29.5in /  999.3hPa West 0.9mph /  1.4km/h 2mph /  3.2km/h 94% 0in /  0.0mm 0 W/m2
02:04 30.2 °F /  -1 °C 28.8 °F /  -1.8 °C 29.5in /  999.7hPa WNW 0.9mph /  1.4km/h 3mph /  4.8km/h 94% 0in /  0.0mm 0 W/m2
02:09 30.2 °F /  -1 °C 28.8 °F /  -1.8 °C 29.5in /  999.7hPa Calm     94% 0in /  0.0mm 0 W/m2
02:14 30.4 °F /  -0.9 °C 29.1 °F /  -1.6 °C 29.5in /  999.7hPa NW 2.9mph /  4.7km/h 4mph /  6.4km/h 95% 0in /  0.0mm 0 W/m2
02:19 30.4 °F /  -0.9 °C 29.1 °F /  -1.6 °C 29.5in /  999.7hPa Calm   1mph /  1.6km/h 95% 0in /  0.0mm 0 W/m2
02:24 30.2 °F /  -1 °C 28.9 °F /  -1.7 °C 29.5in /  999.7hPa West 0.9mph /  1.4km/h 2mph /  3.2km/h 95% 0in /  0.0mm 0 W/m2
02:29 30.2 °F /  -1 °C 28.9 °F /  -1.7 °C 29.5in /  999.7hPa Calm   2mph /  3.2km/h 95% 0in /  0.0mm 0 W/m2
02:34 30.2 °F /  -1 °C 28.9 °F /  -1.7 °C 29.5in /  999.7hPa Calm     95% 0in /  0.0mm 0 W/m2
02:39 30.2 °F /  -1 °C 28.9 °F /  -1.7 °C 29.5in /  999.7hPa Calm   3mph /  4.8km/h 95% 0in /  0.0mm 0 W/m2
02:44 30.2 °F /  -1 °C 28.9 °F /  -1.7 °C 29.5in /  999.7hPa West 2mph /  3.2km/h 2mph /  3.2km/h 95% 0in /  0.0mm 0 W/m2
02:49 30 °F /  -1.1 °C 28.8 °F /  -1.8 °C 29.5in /  999.7hPa WNW 2mph /  3.2km/h 3mph /  4.8km/h 95% 0in /  0.0mm 0 W/m2
02:54 30 °F /  -1.1 °C 28.8 °F /  -1.8 °C 29.5in /  999.7hPa WNW 0.9mph /  1.4km/h 2mph /  3.2km/h 95% 0in /  0.0mm 0 W/m2
02:59 30 °F /  -1.1 °C 28.8 °F /  -1.8 °C 29.5in /  999.7hPa Calm   2mph /  3.2km/h 95% 0in /  0.0mm 0 W/m2
03:04 30 °F /  -1.1 °C 28.8 °F /  -1.8 °C 29.5in /  999.7hPa West 2.9mph /  4.7km/h 6mph /  9.7km/h 95% 0in /  0.0mm 0 W/m2
03:09 30 °F /  -1.1 °C 28.6 °F /  -1.9 °C 29.5in /  999.7hPa SW 0.9mph /  1.4km/h 2mph /  3.2km/h 94% 0in /  0.0mm 0 W/m2
03:14 30 °F /  -1.1 °C 28.8 °F /  -1.8 °C 29.5in /  999.7hPa WNW 2mph /  3.2km/h 4mph /  6.4km/h 95% 0in /  0.0mm 0 W/m2
03:19 30 °F /  -1.1 °C 28.8 °F /  -1.8 °C 29.5in /  999.7hPa WNW 2mph /  3.2km/h 2mph /  3.2km/h 95% 0in /  0.0mm 0 W/m2
03:24 30 °F /  -1.1 °C 28.8 °F /  -1.8 °C 29.5in /  999.7hPa WNW 0.9mph /  1.4km/h 3mph /  4.8km/h 95% 0in /  0.0mm 0 W/m2
03:29 30 °F /  -1.1 °C 28.8 °F /  -1.8 °C 29.5in /  999.7hPa WNW 0.9mph /  1.4km/h 1mph /  1.6km/h 95% 0in /  0.0mm 0 W/m2
03:34 30 °F /  -1.1 °C 28.8 °F /  -1.8 °C 29.5in /  999.7hPa WSW 2mph /  3.2km/h 4mph /  6.4km/h 95% 0in /  0.0mm 0 W/m2
03:39 29.8 °F /  -1.2 °C 28.6 °F /  -1.9 °C 29.5in /  999.7hPa WSW 0.9mph /  1.4km/h 4mph /  6.4km/h 95% 0in /  0.0mm 0 W/m2
03:44 29.8 °F /  -1.2 °C 28.6 °F /  -1.9 °C 29.5in /  999.7hPa West 2mph /  3.2km/h 2mph /  3.2km/h 95% 0in /  0.0mm 0 W/m2
03:49 29.8 °F /  -1.2 °C 28.6 °F /  -1.9 °C 29.5in /  999.7hPa West 2.9mph /  4.7km/h 4mph /  6.4km/h 95% 0in /  0.0mm 0 W/m2
03:54 29.8 °F /  -1.2 °C 28.6 °F /  -1.9 °C 29.5in /  999.7hPa WSW 2mph /  3.2km/h 6mph /  9.7km/h 95% 0in /  0.0mm 0 W/m2
03:59 29.8 °F /  -1.2 °C 28.6 °F /  -1.9 °C 29.5in /  999.7hPa WNW 0.9mph /  1.4km/h 4mph /  6.4km/h 95% 0in /  0.0mm 0 W/m2
04:04 29.8 °F /  -1.2 °C 28.6 °F /  -1.9 °C 29.5in /  999.7hPa WNW 2mph /  3.2km/h 6mph /  9.7km/h 95% 0in /  0.0mm 0 W/m2
04:09 29.8 °F /  -1.2 °C 28.6 °F /  -1.9 °C 29.5in /  999.7hPa NW 2mph /  3.2km/h 4mph /  6.4km/h 95% 0in /  0.0mm 0 W/m2
04:14 29.8 °F /  -1.2 °C 28.6 °F /  -1.9 °C 29.5in /  999.7hPa NW 0.9mph /  1.4km/h 6mph /  9.7km/h 95% 0in /  0.0mm 0 W/m2
04:19 29.8 °F /  -1.2 °C 28.6 °F /  -1.9 °C 29.5in /  999.7hPa NW 0.9mph /  1.4km/h 2mph /  3.2km/h 95% 0in /  0.0mm 0 W/m2
04:24 30 °F /  -1.1 °C 28.8 °F /  -1.8 °C 29.5in /  999.7hPa West 4mph /  6.4km/h 4mph /  6.4km/h 95% 0in /  0.0mm 0 W/m2
04:29 30 °F /  -1.1 °C 28.8 °F /  -1.8 °C 29.5in /  999.7hPa WNW 2mph /  3.2km/h 3mph /  4.8km/h 95% 0in /  0.0mm 0 W/m2
04:34 30 °F /  -1.1 °C 28.8 °F /  -1.8 °C 29.5in /  1000.0hPa West 2.9mph /  4.7km/h 4mph /  6.4km/h 95% 0in /  0.0mm 0 W/m2
04:39 30 °F /  -1.1 °C 28.8 °F /  -1.8 °C 29.5in /  1000.0hPa WNW 0.9mph /  1.4km/h 3mph /  4.8km/h 95% 0in /  0.0mm 0 W/m2
04:44 30 °F /  -1.1 °C 28.8 °F /  -1.8 °C 29.5in /  1000.0hPa WSW 2mph /  3.2km/h 4mph /  6.4km/h 95% 0in /  0.0mm 0 W/m2
04:49 30 °F /  -1.1 °C 28.8 °F /  -1.8 °C 29.5in /  1000.0hPa West 2.9mph /  4.7km/h 3mph /  4.8km/h 95% 0in /  0.0mm 0 W/m2
04:54 30 °F /  -1.1 °C 28.8 °F /  -1.8 °C 29.5in /  1000.0hPa WSW 0.9mph /  1.4km/h 3mph /  4.8km/h 95% 0in /  0.0mm 0 W/m2
04:59 30.2 °F /  -1 °C 28.9 °F /  -1.7 °C 29.5in /  1000.0hPa WSW 2mph /  3.2km/h 3mph /  4.8km/h 95% 0in /  0.0mm 0 W/m2
05:04 30.2 °F /  -1 °C 28.9 °F /  -1.7 °C 29.5in /  1000.0hPa WSW 2mph /  3.2km/h 4mph /  6.4km/h 95% 0in /  0.0mm 0 W/m2
05:09 30.2 °F /  -1 °C 28.9 °F /  -1.7 °C 29.5in /  1000.3hPa WNW 4mph /  6.4km/h 4mph /  6.4km/h 95% 0in /  0.0mm 0 W/m2
05:14 30.4 °F /  -0.9 °C 29.1 °F /  -1.6 °C 29.5in /  1000.3hPa WNW 2mph /  3.2km/h 3mph /  4.8km/h 95% 0in /  0.0mm 0 W/m2
05:19 30.4 °F /  -0.9 °C 29.1 °F /  -1.6 °C 29.5in /  1000.3hPa WNW 2mph /  3.2km/h 7mph /  11.3km/h 95% 0in /  0.0mm 0 W/m2
05:24 30.4 °F /  -0.9 °C 29.1 °F /  -1.6 °C 29.5in /  1000.3hPa WNW 2mph /  3.2km/h 3mph /  4.8km/h 95% 0in /  0.0mm 0 W/m2
05:29 30.4 °F /  -0.9 °C 29.1 °F /  -1.6 °C 29.5in /  1000.3hPa NW 2mph /  3.2km/h 4mph /  6.4km/h 95% 0in /  0.0mm 0 W/m2
05:34 30.4 °F /  -0.9 °C 29.1 °F /  -1.6 °C 29.5in /  1000.3hPa WSW 2mph /  3.2km/h 3mph /  4.8km/h 95% 0in /  0.0mm 0 W/m2
05:39 30.6 °F /  -0.8 °C 29.3 °F /  -1.5 °C 29.5in /  1000.3hPa WNW 2mph /  3.2km/h 6mph /  9.7km/h 95% 0in /  0.0mm 0 W/m2
05:44 30.6 °F /  -0.8 °C 29.3 °F /  -1.5 °C 29.5in /  1000.3hPa WSW 2.9mph /  4.7km/h 3mph /  4.8km/h 95% 0in /  0.0mm 0 W/m2
05:49 30.6 °F /  -0.8 °C 29.3 °F /  -1.5 °C 29.6in /  1000.7hPa WNW 0.9mph /  1.4km/h 4mph /  6.4km/h 95% 0in /  0.0mm 0 W/m2
05:54 30.6 °F /  -0.8 °C 29.3 °F /  -1.5 °C 29.6in /  1000.7hPa WNW 2mph /  3.2km/h 3mph /  4.8km/h 95% 0in /  0.0mm 0 W/m2
05:59 30.6 °F /  -0.8 °C 29.3 °F /  -1.5 °C 29.6in /  1000.7hPa West 2mph /  3.2km/h 3mph /  4.8km/h 95% 0in /  0.0mm 0 W/m2
06:04 30.6 °F /  -0.8 °C 29.1 °F /  -1.6 °C 29.6in /  1000.7hPa WSW 2mph /  3.2km/h 4mph /  6.4km/h 94% 0in /  0.0mm 0 W/m2
06:09 30.6 °F /  -0.8 °C 29.1 °F /  -1.6 °C 29.6in /  1000.7hPa WNW 2mph /  3.2km/h 2mph /  3.2km/h 94% 0in /  0.0mm 0 W/m2
06:14 30.7 °F /  -0.7 °C 29.3 °F /  -1.5 °C 29.6in /  1001.0hPa West 0.9mph /  1.4km/h 4mph /  6.4km/h 94% 0in /  0.0mm 0 W/m2
06:19 30.7 °F /  -0.7 °C 29.5 °F /  -1.4 °C 29.6in /  1000.7hPa West 0.9mph /  1.4km/h 2mph /  3.2km/h 95% 0in /  0.0mm 0 W/m2
06:24 30.7 °F /  -0.7 °C 29.3 °F /  -1.5 °C 29.6in /  1001.0hPa West 2mph /  3.2km/h 4mph /  6.4km/h 94% 0in /  0.0mm 0 W/m2
06:29 30.9 °F /  -0.6 °C 29.5 °F /  -1.4 °C 29.6in /  1001.0hPa ENE 2.9mph /  4.7km/h 3mph /  4.8km/h 94% 0in /  0.0mm 0 W/m2
06:34 30.7 °F /  -0.7 °C 29.3 °F /  -1.5 °C 29.6in /  1001.0hPa East 2mph /  3.2km/h 2mph /  3.2km/h 94% 0in /  0.0mm 0 W/m2
06:39 30.7 °F /  -0.7 °C 29.3 °F /  -1.5 °C 29.6in /  1001.0hPa NE 2mph /  3.2km/h 3mph /  4.8km/h 94% 0in /  0.0mm 0 W/m2
06:44 30.6 °F /  -0.8 °C 29.1 °F /  -1.6 °C 29.6in /  1001.0hPa East 2mph /  3.2km/h 3mph /  4.8km/h 94% 0in /  0.0mm 0 W/m2
06:49 30.6 °F /  -0.8 °C 29.1 °F /  -1.6 °C 29.6in /  1001.4hPa ENE 2.9mph /  4.7km/h 4mph /  6.4km/h 94% 0in /  0.0mm 0 W/m2
06:54 30.4 °F /  -0.9 °C 28.9 °F /  -1.7 °C 29.6in /  1001.4hPa Calm   2mph /  3.2km/h 94% 0in /  0.0mm 0 W/m2
06:59 30 °F /  -1.1 °C 28.8 °F /  -1.8 °C 29.6in /  1001.4hPa NE 2mph /  3.2km/h 4mph /  6.4km/h 95% 0in /  0.0mm 0 W/m2
07:04 30 °F /  -1.1 °C 28.8 °F /  -1.8 °C 29.6in /  1001.4hPa NW 0.9mph /  1.4km/h 2mph /  3.2km/h 95% 0in /  0.0mm 0 W/m2
07:09 29.8 °F /  -1.2 °C 28.4 °F /  -2 °C 29.6in /  1001.7hPa NW 2mph /  3.2km/h 4mph /  6.4km/h 94% 0in /  0.0mm 0 W/m2
07:14 29.8 °F /  -1.2 °C 28.6 °F /  -1.9 °C 29.6in /  1001.7hPa NW 0.9mph /  1.4km/h 3mph /  4.8km/h 95% 0in /  0.0mm 0 W/m2
07:19 29.7 °F /  -1.3 °C 28.4 °F /  -2 °C 29.6in /  1001.7hPa NNE 0.9mph /  1.4km/h 3mph /  4.8km/h 95% 0in /  0.0mm 0 W/m2
07:24 29.7 °F /  -1.3 °C 28.4 °F /  -2 °C 29.6in /  1002.0hPa North 0.9mph /  1.4km/h 2mph /  3.2km/h 95% 0in /  0.0mm 0 W/m2
07:29 29.7 °F /  -1.3 °C 28.4 °F /  -2 °C 29.6in /  1002.0hPa NW 0.9mph /  1.4km/h 3mph /  4.8km/h 95% 0in /  0.0mm 0 W/m2
07:34 29.5 °F /  -1.4 °C 28.2 °F /  -2.1 °C 29.6in /  1002.0hPa NW 0.9mph /  1.4km/h 2mph /  3.2km/h 95% 0in /  0.0mm 0 W/m2
07:39 29.5 °F /  -1.4 °C 28.2 °F /  -2.1 °C 29.6in /  1002.0hPa NE 0.9mph /  1.4km/h 2mph /  3.2km/h 95% 0in /  0.0mm 0 W/m2
07:44 29.3 °F /  -1.5 °C 28 °F /  -2.2 °C 29.6in /  1002.0hPa Calm   1mph /  1.6km/h 95% 0in /  0.0mm 0 W/m2
07:49 29.3 °F /  -1.5 °C 28 °F /  -2.2 °C 29.6in /  1002.0hPa Calm   2mph /  3.2km/h 95% 0in /  0.0mm 0 W/m2
07:54 29.3 °F /  -1.5 °C 28 °F /  -2.2 °C 29.6in /  1002.0hPa Calm   2mph /  3.2km/h 95% 0in /  0.0mm 0 W/m2
07:59 29.3 °F /  -1.5 °C 28 °F /  -2.2 °C 29.6in /  1002.0hPa Calm   1mph /  1.6km/h 95% 0in /  0.0mm 0 W/m2
08:04 29.5 °F /  -1.4 °C 28.2 °F /  -2.1 °C 29.6in /  1002.0hPa NE 0.9mph /  1.4km/h 3mph /  4.8km/h 95% 0in /  0.0mm 0 W/m2
08:09 29.5 °F /  -1.4 °C 28.2 °F /  -2.1 °C 29.6in /  1002.0hPa NNE 0.9mph /  1.4km/h 3mph /  4.8km/h 95% 0in /  0.0mm 0 W/m2
08:14 29.5 °F /  -1.4 °C 28.2 °F /  -2.1 °C 29.6in /  1002.0hPa Calm   1mph /  1.6km/h 95% 0in /  0.0mm 5 W/m2
08:19 29.3 °F /  -1.5 °C 28 °F /  -2.2 °C 29.6in /  1002.0hPa NE 0.9mph /  1.4km/h 2mph /  3.2km/h 95% 0in /  0.0mm 7 W/m2
08:24 29.3 °F /  -1.5 °C 28 °F /  -2.2 °C 29.6in /  1002.0hPa NNE 0.9mph /  1.4km/h 3mph /  4.8km/h 95% 0in /  0.0mm 7 W/m2
08:29 29.1 °F /  -1.6 °C 27.9 °F /  -2.3 °C 29.6in /  1002.0hPa Calm   1mph /  1.6km/h 95% 0in /  0.0mm 5 W/m2
08:34 29.1 °F /  -1.6 °C 27.9 °F /  -2.3 °C 29.6in /  1002.0hPa Calm   1mph /  1.6km/h 95% 0in /  0.0mm 7 W/m2
08:39 29.1 °F /  -1.6 °C 27.9 °F /  -2.3 °C 29.6in /  1002.0hPa Calm   2mph /  3.2km/h 95% 0in /  0.0mm 7 W/m2
08:44 29.1 °F /  -1.6 °C 27.9 °F /  -2.3 °C 29.6in /  1002.0hPa North 0.9mph /  1.4km/h 2mph /  3.2km/h 95% 0in /  0.0mm 7 W/m2
08:49 29.1 °F /  -1.6 °C 27.9 °F /  -2.3 °C 29.6in /  1002.4hPa NE 0.9mph /  1.4km/h 2mph /  3.2km/h 95% 0in /  0.0mm 7 W/m2
08:54 29.1 °F /  -1.6 °C 27.9 °F /  -2.3 °C 29.6in /  1002.4hPa ESE 2.9mph /  4.7km/h 4mph /  6.4km/h 95% 0in /  0.0mm 11 W/m2
08:59 28.9 °F /  -1.7 °C 27.7 °F /  -2.4 °C 29.6in /  1002.4hPa ESE 2mph /  3.2km/h 3mph /  4.8km/h 95% 0in /  0.0mm 11 W/m2
09:04 28.9 °F /  -1.7 °C 27.5 °F /  -2.5 °C 29.6in /  1002.4hPa NE 0.9mph /  1.4km/h 3mph /  4.8km/h 94% 0in /  0.0mm 9 W/m2
09:09 28.9 °F /  -1.7 °C 27.7 °F /  -2.4 °C 29.6in /  1002.4hPa Calm   2mph /  3.2km/h 95% 0in /  0.0mm 11 W/m2
09:15 28.9 °F /  -1.7 °C 27.7 °F /  -2.4 °C 29.6in /  1002.4hPa Calm   1mph /  1.6km/h 95% 0in /  0.0mm 12 W/m2
09:20 28.8 °F /  -1.8 °C 27.5 °F /  -2.5 °C 29.6in /  1002.4hPa Calm   2mph /  3.2km/h 95% 0in /  0.0mm 12 W/m2
09:25 28.8 °F /  -1.8 °C 27.5 °F /  -2.5 °C 29.6in /  1002.4hPa East 0.9mph /  1.4km/h 3mph /  4.8km/h 95% 0in /  0.0mm 14 W/m2
09:30 28.8 °F /  -1.8 °C 27.5 °F /  -2.5 °C 29.6in /  1002.4hPa East 2mph /  3.2km/h 3mph /  4.8km/h 95% 0in /  0.0mm 14 W/m2
09:35 28.8 °F /  -1.8 °C 27.5 °F /  -2.5 °C 29.6in /  1002.7hPa East 2mph /  3.2km/h 3mph /  4.8km/h 95% 0in /  0.0mm 14 W/m2
09:40 28.8 °F /  -1.8 °C 27.5 °F /  -2.5 °C 29.6in /  1002.7hPa ENE 2mph /  3.2km/h 2mph /  3.2km/h 95% 0in /  0.0mm 14 W/m2
09:45 28.6 °F /  -1.9 °C 27.3 °F /  -2.6 °C 29.6in /  1002.7hPa ENE 0.9mph /  1.4km/h 2mph /  3.2km/h 95% 0in /  0.0mm 14 W/m2
09:50 28.6 °F /  -1.9 °C 27.3 °F /  -2.6 °C 29.6in /  1002.7hPa Calm   1mph /  1.6km/h 95% 0in /  0.0mm 14 W/m2
09:55 28.6 °F /  -1.9 °C 27.3 °F /  -2.6 °C 29.6in /  1002.7hPa Calm   2mph /  3.2km/h 95% 0in /  0.0mm 14 W/m2
10:00 28.6 °F /  -1.9 °C 27.3 °F /  -2.6 °C 29.6in /  1002.7hPa Calm   3mph /  4.8km/h 95% 0in /  0.0mm 14 W/m2
10:05 28.6 °F /  -1.9 °C 27.3 °F /  -2.6 °C 29.6in /  1002.7hPa NE 2mph /  3.2km/h 2mph /  3.2km/h 95% 0in /  0.0mm 14 W/m2
10:10 28.8 °F /  -1.8 °C 27.5 °F /  -2.5 °C 29.6in /  1002.7hPa NE 0.9mph /  1.4km/h 2mph /  3.2km/h 95% 0in /  0.0mm 18 W/m2
10:15 28.8 °F /  -1.8 °C 27.3 °F /  -2.6 °C 29.6in /  1003.0hPa Calm   1mph /  1.6km/h 94% 0in /  0.0mm 18 W/m2
10:20 28.8 °F /  -1.8 °C 27.3 °F /  -2.6 °C 29.6in /  1003.0hPa Calm   3mph /  4.8km/h 94% 0in /  0.0mm 19 W/m2
10:25 28.8 °F /  -1.8 °C 27.3 °F /  -2.6 °C 29.6in /  1003.0hPa ENE 2.9mph /  4.7km/h 4mph /  6.4km/h 94% 0in /  0.0mm 23 W/m2
10:30 28.8 °F /  -1.8 °C 27.3 °F /  -2.6 °C 29.6in /  1003.0hPa NE 0.9mph /  1.4km/h 2mph /  3.2km/h 94% 0in /  0.0mm 23 W/m2
10:35 28.8 °F /  -1.8 °C 27.3 °F /  -2.6 °C 29.6in /  1003.0hPa ENE 0.9mph /  1.4km/h 4mph /  6.4km/h 94% 0in /  0.0mm 23 W/m2
10:40 28.6 °F /  -1.9 °C 27.1 °F /  -2.7 °C 29.6in /  1003.4hPa ESE 2mph /  3.2km/h 4mph /  6.4km/h 94% 0in /  0.0mm 19 W/m2
10:45 28.6 °F /  -1.9 °C 27.1 °F /  -2.7 °C 29.6in /  1003.4hPa Calm   2mph /  3.2km/h 94% 0in /  0.0mm 21 W/m2
10:50 28.6 °F /  -1.9 °C 27.1 °F /  -2.7 °C 29.6in /  1003.4hPa Calm   4mph /  6.4km/h 94% 0in /  0.0mm 21 W/m2
10:55 28.6 °F /  -1.9 °C 27.1 °F /  -2.7 °C 29.6in /  1003.4hPa NNE 0.9mph /  1.4km/h 2mph /  3.2km/h 94% 0in /  0.0mm 21 W/m2
11:00 28.6 °F /  -1.9 °C 27.1 °F /  -2.7 °C 29.6in /  1003.4hPa NNE 0.9mph /  1.4km/h 2mph /  3.2km/h 94% 0in /  0.0mm 23 W/m2
11:05 28.6 °F /  -1.9 °C 27.1 °F /  -2.7 °C 29.6in /  1003.4hPa NE 2mph /  3.2km/h 3mph /  4.8km/h 94% 0in /  0.0mm 23 W/m2
11:10 28.6 °F /  -1.9 °C 26.8 °F /  -2.9 °C 29.6in /  1003.4hPa NNE 0.9mph /  1.4km/h 2mph /  3.2km/h 93% 0in /  0.0mm 25 W/m2
11:15 28.6 °F /  -1.9 °C 26.8 °F /  -2.9 °C 29.6in /  1003.4hPa Calm   1mph /  1.6km/h 93% 0in /  0.0mm 23 W/m2
11:20 28.6 °F /  -1.9 °C 26.8 °F /  -2.9 °C 29.6in /  1003.7hPa NW 0.9mph /  1.4km/h 2mph /  3.2km/h 93% 0in /  0.0mm 19 W/m2
11:25 28.6 °F /  -1.9 °C 26.8 °F /  -2.9 °C 29.6in /  1003.7hPa North 0.9mph /  1.4km/h 2mph /  3.2km/h 93% 0in /  0.0mm 18 W/m2
11:30 28.6 °F /  -1.9 °C 26.8 °F /  -2.9 °C 29.6in /  1003.7hPa North 0.9mph /  1.4km/h 1mph /  1.6km/h 93% 0in /  0.0mm 18 W/m2
11:35 28.6 °F /  -1.9 °C 27.1 °F /  -2.7 °C 29.6in /  1003.7hPa Calm   2mph /  3.2km/h 94% 0in /  0.0mm 19 W/m2
11:40 28.6 °F /  -1.9 °C 27.1 °F /  -2.7 °C 29.6in /  1003.7hPa NE 0.9mph /  1.4km/h 2mph /  3.2km/h 94% 0in /  0.0mm 23 W/m2
11:45 28.8 °F /  -1.8 °C 27.3 °F /  -2.6 °C 29.7in /  1004.1hPa NE 2mph /  3.2km/h 3mph /  4.8km/h 94% 0in /  0.0mm 23 W/m2
11:50 28.6 °F /  -1.9 °C 26.8 °F /  -2.9 °C 29.7in /  1004.1hPa Calm   1mph /  1.6km/h 93% 0in /  0.0mm 25 W/m2
11:55 28.6 °F /  -1.9 °C 26.8 °F /  -2.9 °C 29.7in /  1004.1hPa Calm   3mph /  4.8km/h 93% 0in /  0.0mm 28 W/m2
12:00 28.6 °F /  -1.9 °C 27.1 °F /  -2.7 °C 29.7in /  1004.1hPa ENE 2mph /  3.2km/h 3mph /  4.8km/h 94% 0in /  0.0mm 28 W/m2
12:05 28.6 °F /  -1.9 °C 27.1 °F /  -2.7 °C 29.7in /  1004.1hPa Calm   1mph /  1.6km/h 94% 0in /  0.0mm 30 W/m2
12:10 28.6 °F /  -1.9 °C 27.1 °F /  -2.7 °C 29.7in /  1004.1hPa Calm   1mph /  1.6km/h 94% 0in /  0.0mm 25 W/m2
12:15 28.6 °F /  -1.9 °C 27.1 °F /  -2.7 °C 29.7in /  1004.1hPa Calm     94% 0in /  0.0mm 25 W/m2
12:20 28.8 °F /  -1.8 °C 27.3 °F /  -2.6 °C 29.7in /  1004.1hPa Calm   4mph /  6.4km/h 94% 0in /  0.0mm 30 W/m2
12:25 28.6 °F /  -1.9 °C 27.1 °F /  -2.7 °C 29.7in /  1004.1hPa Calm   2mph /  3.2km/h 94% 0in /  0.0mm 32 W/m2
12:30 28.6 °F /  -1.9 °C 27.1 °F /  -2.7 °C 29.7in /  1004.1hPa NNW 0.9mph /  1.4km/h 4mph /  6.4km/h 94% 0in /  0.0mm 33 W/m2
12:35 28.6 °F /  -1.9 °C 26.8 °F /  -2.9 °C 29.7in /  1004.1hPa ENE 0.9mph /  1.4km/h 1mph /  1.6km/h 93% 0in /  0.0mm 35 W/m2
12:40 28.4 °F /  -2 °C 26.6 °F /  -3 °C 29.7in /  1004.1hPa Calm   1mph /  1.6km/h 93% 0in /  0.0mm 28 W/m2
12:45 28.4 °F /  -2 °C 26.6 °F /  -3 °C 29.7in /  1004.1hPa Calm   1mph /  1.6km/h 93% 0in /  0.0mm 26 W/m2
12:50 28.4 °F /  -2 °C 26.6 °F /  -3 °C 29.7in /  1004.1hPa North 0.9mph /  1.4km/h 2mph /  3.2km/h 93% 0in /  0.0mm 32 W/m2
12:55 28.4 °F /  -2 °C 26.6 °F /  -3 °C 29.7in /  1004.1hPa WNW 2.9mph /  4.7km/h 3mph /  4.8km/h 93% 0in /  0.0mm 30 W/m2
13:00 28.2 °F /  -2.1 °C 26.4 °F /  -3.1 °C 29.7in /  1004.1hPa Calm   1mph /  1.6km/h 93% 0in /  0.0mm 32 W/m2
13:05 28.2 °F /  -2.1 °C 26.4 °F /  -3.1 °C 29.7in /  1004.1hPa West 2mph /  3.2km/h 2mph /  3.2km/h 93% 0in /  0.0mm 30 W/m2
13:10 28.2 °F /  -2.1 °C 26.4 °F /  -3.1 °C 29.7in /  1004.1hPa NNW 2mph /  3.2km/h 3mph /  4.8km/h 93% 0in /  0.0mm 28 W/m2
13:15 28.2 °F /  -2.1 °C 26.4 °F /  -3.1 °C 29.7in /  1004.4hPa Calm   3mph /  4.8km/h 93% 0in /  0.0mm 25 W/m2
13:20 28.2 °F /  -2.1 °C 26.4 °F /  -3.1 °C 29.7in /  1004.4hPa Calm   4mph /  6.4km/h 93% 0in /  0.0mm 23 W/m2
13:25 28.2 °F /  -2.1 °C 26.4 °F /  -3.1 °C 29.7in /  1004.4hPa Calm   2mph /  3.2km/h 93% 0in /  0.0mm 25 W/m2
13:30 28 °F /  -2.2 °C 26.2 °F /  -3.2 °C 29.7in /  1004.4hPa NNW 2mph /  3.2km/h 2mph /  3.2km/h 93% 0in /  0.0mm 25 W/m2
13:36 28 °F /  -2.2 °C 26.2 °F /  -3.2 °C 29.7in /  1004.4hPa NW 0.9mph /  1.4km/h 2mph /  3.2km/h 93% 0in /  0.0mm 26 W/m2
13:41 28 °F /  -2.2 °C 26.2 °F /  -3.2 °C 29.7in /  1004.4hPa NE 2.9mph /  4.7km/h 3mph /  4.8km/h 93% 0in /  0.0mm 26 W/m2
13:46 28 °F /  -2.2 °C 26.2 °F /  -3.2 °C 29.7in /  1004.4hPa Calm   2mph /  3.2km/h 93% 0in /  0.0mm 26 W/m2
13:51 28 °F /  -2.2 °C 26.6 °F /  -3 °C 29.7in /  1004.4hPa ENE 0.9mph /  1.4km/h 2mph /  3.2km/h 94% 0in /  0.0mm 23 W/m2
13:56 28 °F /  -2.2 °C 26.6 °F /  -3 °C 29.7in /  1004.4hPa NW 0.9mph /  1.4km/h 1mph /  1.6km/h 94% 0in /  0.0mm 26 W/m2
14:01 28 °F /  -2.2 °C 26.6 °F /  -3 °C 29.7in /  1004.7hPa ENE 0.9mph /  1.4km/h 2mph /  3.2km/h 94% 0in /  0.0mm 28 W/m2
14:06 28 °F /  -2.2 °C 26.6 °F /  -3 °C 29.7in /  1004.4hPa North 2mph /  3.2km/h 2mph /  3.2km/h 94% 0in /  0.0mm 26 W/m2
14:11 27.9 °F /  -2.3 °C 26.4 °F /  -3.1 °C 29.7in /  1004.4hPa Calm   1mph /  1.6km/h 94% 0in /  0.0mm 26 W/m2
14:16 28 °F /  -2.2 °C 26.6 °F /  -3 °C 29.7in /  1004.4hPa ENE 2mph /  3.2km/h 4mph /  6.4km/h 94% 0in /  0.0mm 25 W/m2
14:21 27.9 °F /  -2.3 °C 26.4 °F /  -3.1 °C 29.7in /  1004.4hPa NE 2mph /  3.2km/h 3mph /  4.8km/h 94% 0in /  0.0mm 26 W/m2
14:26 27.9 °F /  -2.3 °C 26.4 °F /  -3.1 °C 29.7in /  1004.4hPa Calm   1mph /  1.6km/h 94% 0in /  0.0mm 30 W/m2
14:31 27.9 °F /  -2.3 °C 26.4 °F /  -3.1 °C 29.7in /  1004.4hPa ENE 0.9mph /  1.4km/h 3mph /  4.8km/h 94% 0in /  0.0mm 28 W/m2
14:36 27.7 °F /  -2.4 °C 25.9 °F /  -3.4 °C 29.7in /  1004.4hPa East 2.9mph /  4.7km/h 5mph /  8km/h 93% 0in /  0.0mm 26 W/m2
14:41 27.7 °F /  -2.4 °C 25.9 °F /  -3.4 °C 29.7in /  1004.4hPa ENE 0.9mph /  1.4km/h 3mph /  4.8km/h 93% 0in /  0.0mm 25 W/m2
14:46 27.7 °F /  -2.4 °C 26.2 °F /  -3.2 °C 29.7in /  1004.7hPa ENE 0.9mph /  1.4km/h 5mph /  8km/h 94% 0in /  0.0mm 25 W/m2
14:51 27.7 °F /  -2.4 °C 26.2 °F /  -3.2 °C 29.7in /  1004.7hPa ENE 0.9mph /  1.4km/h 2mph /  3.2km/h 94% 0in /  0.0mm 25 W/m2
14:56 27.7 °F /  -2.4 °C 25.9 °F /  -3.4 °C 29.7in /  1004.4hPa ESE 2.9mph /  4.7km/h 3mph /  4.8km/h 93% 0in /  0.0mm 25 W/m2
15:01 27.9 °F /  -2.3 °C 26.4 °F /  -3.1 °C 29.7in /  1004.7hPa NE 0.9mph /  1.4km/h 2mph /  3.2km/h 94% 0in /  0.0mm 21 W/m2
15:06 27.7 °F /  -2.4 °C 26.2 °F /  -3.2 °C 29.7in /  1004.7hPa ENE 2mph /  3.2km/h 3mph /  4.8km/h 94% 0in /  0.0mm 25 W/m2
15:11 27.7 °F /  -2.4 °C 25.9 °F /  -3.4 °C 29.7in /  1004.7hPa ESE 0.9mph /  1.4km/h 2mph /  3.2km/h 93% 0in /  0.0mm 25 W/m2
15:16 27.7 °F /  -2.4 °C 26.2 °F /  -3.2 °C 29.7in /  1004.7hPa SE 0.9mph /  1.4km/h 1mph /  1.6km/h 94% 0in /  0.0mm 26 W/m2
15:21 27.9 °F /  -2.3 °C 26.1 °F /  -3.3 °C 29.7in /  1004.7hPa Calm   4mph /  6.4km/h 93% 0in /  0.0mm 25 W/m2
15:26 27.7 °F /  -2.4 °C 25.9 °F /  -3.4 °C 29.7in /  1004.4hPa NE 0.9mph /  1.4km/h 1mph /  1.6km/h 93% 0in /  0.0mm 23 W/m2
15:31 27.9 °F /  -2.3 °C 26.1 °F /  -3.3 °C 29.7in /  1004.4hPa East 0.9mph /  1.4km/h 4mph /  6.4km/h 93% 0in /  0.0mm 21 W/m2
15:36 27.9 °F /  -2.3 °C 26.1 °F /  -3.3 °C 29.7in /  1004.4hPa ESE 0.9mph /  1.4km/h 2mph /  3.2km/h 93% 0in /  0.0mm 23 W/m2
15:41 27.9 °F /  -2.3 °C 26.1 °F /  -3.3 °C 29.7in /  1004.1hPa Calm   3mph /  4.8km/h 93% 0in /  0.0mm 26 W/m2
15:46 27.9 °F /  -2.3 °C 26.1 °F /  -3.3 °C 29.7in /  1004.1hPa Calm   1mph /  1.6km/h 93% 0in /  0.0mm 28 W/m2
15:51 27.9 °F /  -2.3 °C 26.4 °F /  -3.1 °C 29.7in /  1004.1hPa East 4mph /  6.4km/h 4mph /  6.4km/h 94% 0in /  0.0mm 26 W/m2
15:56 27.9 °F /  -2.3 °C 26.4 °F /  -3.1 °C 29.7in /  1004.1hPa NE 2.9mph /  4.7km/h 4mph /  6.4km/h 94% 0in /  0.0mm 26 W/m2
16:01 27.9 °F /  -2.3 °C 26.4 °F /  -3.1 °C 29.7in /  1004.1hPa East 2mph /  3.2km/h 3mph /  4.8km/h 94% 0in /  0.0mm 26 W/m2
16:06 27.9 °F /  -2.3 °C 26.1 °F /  -3.3 °C 29.7in /  1004.1hPa Calm   4mph /  6.4km/h 93% 0in /  0.0mm 21 W/m2
16:11 27.9 °F /  -2.3 °C 26.1 °F /  -3.3 °C 29.7in /  1004.1hPa Calm   2mph /  3.2km/h 93% 0in /  0.0mm 18 W/m2
Juneau County Weather
Compliments of Weather Underground - 4 mb